LFGJ/DLE METAR and TAF weather

Enter ICAO airport designator
Station Type Date Time Source
LFGJ METAR 2021/03/03 03:00 UTC NOAA

LFGJ 030300Z AUTO 05002KT CAVOK 05/03 Q1030


Station Type Date Time Source
LFGJ Decoded METAR 2021/03/03 03:00 UTC NOAA

Dole Tavaux, France (LFGJ) 47-02-34N 005-26-06E
Mar 02, 2021 - 10:00 PM EST / 2021.03.03 0300 UTC
Wind: from the NE (050 degrees) at 2 MPH (2 KT):0
Visibility: greater than 7 mile(s):0
Temperature: 41 F (5 C)
Dew Point: 37 F (3 C)
Relative Humidity: 86%
Pressure (altimeter): 30.42 in. Hg (1030 hPa)
ob: LFGJ 030300Z AUTO 05002KT CAVOK 05/03 Q1030
cycle: 3

Station Type Date Time Source
LFGJ TAF 2020/06/22 09:21 UTC NOAA

TAF LFGJ 220800Z 2209/2221 01008KT 9999 FEW035 BKN053
BECMG 2212/2215 CAVOK

Example: see airport list